Time;durP1;ratioP1;P1;durP2;ratioP2;P2;SDS_P1;SDS_P2;PMS_P1;PMS_P2;Temp;Humidity;BMP_temperature;BMP_pressure;BME280_temperature;BME280_humidity;BME280_pressure;Samples;Min_cycle;Max_cycle;Signal;HPM_P1;HPM_P2
2021/10/16 00:00:42;;;;;;;10.35;5.45;;;;;;;9.23;81.91;98247.16;1725187;81;21053;-85
2021/10/16 00:03:08;;;;;;;8.63;3.50;;;;;;;9.20;82.21;98251.72;1725123;82;21004;-86
2021/10/16 00:05:36;;;;;;;5.70;3.15;;;;;;;9.18;81.79;98249.29;1725277;81;20980;-85
2021/10/16 00:08:04;;;;;;;4.20;2.90;;;;;;;9.22;81.82;98254.97;1725347;83;21062;-85
2021/10/16 00:10:43;;;;;;;;;;;;;;;;;;;;;
2021/10/16 00:13:05;;;;;;;5.90;3.77;;;;;;;9.28;82.14;98245.27;1675033;83;21016;-83
2021/10/16 00:15:41;;;;;;;;;;;;;;;;;;;;;
2021/10/16 00:18:01;;;;;;;4.78;3.47;;;;;;;9.23;82.38;98254.73;1722075;82;20977;-83
2021/10/16 00:20:26;;;;;;;11.73;6.90;;;;;;;9.23;82.38;98254.73;1724969;81;21019;-83
2021/10/16 00:22:54;;;;;;;12.18;6.92;;;;;;;9.17;82.33;98250.91;1719935;83;21028;-84
2021/10/16 00:25:22;;;;;;;9.50;5.00;;;;;;;9.13;82.58;98252.50;1725269;81;20928;-82
2021/10/16 00:27:58;;;;;;;;;;;;;;;;;;;;;
2021/10/16 00:30:16;;;;;;;5.50;3.75;;;;;;;9.17;82.44;98253.08;1720670;81;20921;-86
2021/10/16 00:32:46;;;;;;;7.83;4.00;;;;;;;9.21;82.56;98256.86;1725044;83;20956;-82
2021/10/16 00:35:15;;;;;;;11.68;6.00;;;;;;;9.19;82.74;98256.86;1725258;81;21036;-85
2021/10/16 00:37:40;;;;;;;11.30;5.90;;;;;;;9.18;83.08;98254.70;1725355;81;21138;-82
2021/10/16 00:40:06;;;;;;;8.43;4.83;;;;;;;9.19;83.70;98252.27;1727586;81;21448;-84
2021/10/16 00:42:44;;;;;;;5.75;3.70;;;;;;;9.09;83.49;98256.28;1727580;83;21004;-86
2021/10/16 00:45:12;;;;;;;7.97;4.97;;;;;;;9.10;83.67;98263.31;1727270;81;21046;-86
2021/10/16 00:47:38;;;;;;;8.68;4.85;;;;;;;9.08;84.18;98257.37;1727512;82;21356;-82
2021/10/16 00:50:07;;;;;;;8.13;5.72;;;;;;;9.09;84.07;98264.39;1712738;81;20984;-82
2021/10/16 00:52:33;;;;;;;7.70;5.92;;;;;;;9.14;83.87;98256.29;1727503;83;21381;-82
2021/10/16 00:54:59;;;;;;;10.82;5.72;;;;;;;9.17;83.63;98254.43;1697251;83;20951;-85
2021/10/16 00:57:27;;;;;;;7.83;5.30;;;;;;;9.19;83.38;98266.33;1727723;83;20904;-86
2021/10/16 00:59:55;;;;;;;9.13;5.58;;;;;;;9.19;83.20;98259.56;1727795;81;21514;-86
2021/10/16 01:02:21;;;;;;;9.10;5.08;;;;;;;9.13;83.86;98257.91;1727477;83;21483;-87
2021/10/16 01:04:47;;;;;;;6.22;4.92;;;;;;;8.99;85.14;98266.52;1727647;81;20898;-85
2021/10/16 01:07:15;;;;;;;7.22;4.87;;;;;;;8.94;84.55;98261.62;1727568;82;21516;-86
2021/10/16 01:09:55;;;;;;;;;;;;;;;;;;;;;
2021/10/16 01:12:13;;;;;;;8.13;5.50;;;;;;;8.83;86.43;98260.76;1722940;82;21161;-86
2021/10/16 01:14:47;;;;;;;6.92;4.35;;;;;;;8.88;84.81;98258.06;1722260;81;21079;-82
2021/10/16 01:17:13;;;;;;;5.95;4.20;;;;;;;8.93;84.84;98264.86;1727477;83;20988;-85
2021/10/16 01:19:45;;;;;;;5.80;4.35;;;;;;;8.93;85.04;98266.75;1697458;81;21463;-85
2021/10/16 01:22:20;;;;;;;9.40;4.03;;;;;;;8.90;85.36;98268.09;1727206;83;20988;-82
2021/10/16 01:24:40;;;;;;;6.77;4.40;;;;;;;8.88;85.67;98268.06;1725737;81;21420;-85
2021/10/16 01:27:08;;;;;;;5.97;3.70;;;;;;;8.84;85.86;98270.48;1723787;83;21294;-83
2021/10/16 01:29:36;;;;;;;6.12;4.47;;;;;;;8.88;84.82;98268.06;1724104;81;20960;-85
2021/10/16 01:32:14;;;;;;;;;;;;;;;;;;;;;
2021/10/16 01:34:34;;;;;;;11.73;6.62;;;;;;;8.81;85.58;98271.02;1720825;81;21449;-82
2021/10/16 01:37:00;;;;;;;12.25;6.90;;;;;;;8.81;84.80;98270.22;1727686;83;21075;-85
2021/10/16 01:39:29;;;;;;;17.02;8.08;;;;;;;8.73;85.41;98272.87;1702690;83;21033;-82
2021/10/16 01:41:54;;;;;;;15.80;7.72;;;;;;;8.68;85.32;98274.17;1698357;82;21027;-82
2021/10/16 01:44:20;;;;;;;16.70;8.38;;;;;;;8.64;85.97;98280.66;1698308;83;21082;-86
2021/10/16 01:46:50;;;;;;;17.23;8.78;;;;;;;8.65;85.63;98280.92;1697948;83;20932;-85
2021/10/16 01:49:18;;;;;;;17.90;9.15;;;;;;;8.66;85.23;98279.03;1698307;84;20912;-85
2021/10/16 01:51:45;;;;;;;21.15;8.88;;;;;;;8.62;85.98;98276.02;1698002;83;21080;-82
2021/10/16 01:54:11;;;;;;;16.67;7.60;;;;;;;8.62;85.73;98278.72;1698306;84;21026;-86
2021/10/16 01:56:37;;;;;;;14.40;6.55;;;;;;;8.61;85.73;98279.80;1698155;83;20952;-85
2021/10/16 01:59:20;;;;;;;11.28;6.85;;;;;;;8.55;85.61;98280.86;1697989;84;20919;-82
2021/10/16 02:01:46;;;;;;;9.50;4.87;;;;;;;8.52;85.70;98288.66;1698417;83;20924;-86
2021/10/16 02:04:12;;;;;;;15.83;6.75;;;;;;;8.44;85.40;98285.36;1698069;84;21419;-82
2021/10/16 02:06:41;;;;;;;8.30;5.37;;;;;;;8.38;85.70;98285.06;1697153;83;21022;-82
2021/10/16 02:09:07;;;;;;;8.15;3.75;;;;;;;8.33;85.73;98289.57;1698255;83;20948;-82
2021/10/16 02:11:35;;;;;;;6.83;4.03;;;;;;;8.20;86.32;98284.05;1698290;83;20996;-86
2021/10/16 02:14:14;;;;;;;5.80;4.00;;;;;;;8.19;85.20;98284.59;1694359;84;20991;-85
2021/10/16 02:16:35;;;;;;;5.80;3.70;;;;;;;8.15;86.18;98288.08;1694672;83;20920;-86
2021/10/16 02:19:03;;;;;;;5.62;3.50;;;;;;;8.12;85.91;98290.77;1694803;84;20983;-82
2021/10/16 02:21:29;;;;;;;5.78;3.70;;;;;;;8.12;85.76;98294.00;1698258;83;21023;-85
2021/10/16 02:23:58;;;;;;;4.92;3.00;;;;;;;8.00;86.48;98299.55;1698259;83;21018;-86
2021/10/16 02:26:23;;;;;;;9.55;4.90;;;;;;;7.99;85.86;98299.27;1698356;83;20963;-82
2021/10/16 02:28:52;;;;;;;7.17;4.37;;;;;;;8.02;85.30;98297.94;1698267;83;21316;-86
2021/10/16 02:31:19;;;;;;;7.83;4.55;;;;;;;8.04;84.99;98305.27;1698168;83;20916;-87
2021/10/16 02:33:45;;;;;;;7.22;4.62;;;;;;;8.07;84.77;98308.25;1698319;84;20923;-86
2021/10/16 02:36:13;;;;;;;6.42;4.35;;;;;;;8.06;84.61;98301.23;1698361;83;20871;-86
2021/10/16 02:38:49;;;;;;;;;;;;;;;;;;;;;
2021/10/16 02:41:07;;;;;;;11.80;6.58;;;;;;;8.05;84.11;98309.05;1722691;81;21763;-86
2021/10/16 02:43:33;;;;;;;10.55;7.00;;;;;;;8.01;83.86;98308.45;1727488;83;20976;-83
2021/10/16 02:45:59;;;;;;;13.45;8.83;;;;;;;7.94;83.75;98311.36;1727620;81;20876;-82
2021/10/16 02:48:27;;;;;;;8.38;5.72;;;;;;;7.84;83.42;98308.56;1728066;83;21023;-86
2021/10/16 02:50:53;;;;;;;11.65;6.10;;;;;;;7.76;83.38;98319.81;1727541;81;20984;-87
2021/10/16 02:53:19;;;;;;;7.25;5.20;;;;;;;7.72;83.47;98325.45;1727597;83;21002;-82
2021/10/16 02:55:45;;;;;;;7.35;3.83;;;;;;;7.67;83.34;98323.50;1727626;81;20840;-81
2021/10/16 02:58:11;;;;;;;6.42;3.37;;;;;;;7.61;83.20;98328.04;1727781;83;20959;-87
2021/10/16 03:00:37;;;;;;;10.88;5.12;;;;;;;7.55;83.24;98329.04;1727671;81;20892;-87
2021/10/16 03:03:03;;;;;;;6.90;4.22;;;;;;;7.49;83.21;98325.19;1728200;83;21456;-82
2021/10/16 03:05:29;;;;;;;11.75;5.20;;;;;;;7.43;83.14;98331.04;1727533;81;21181;-83
2021/10/16 03:07:55;;;;;;;10.75;4.05;;;;;;;7.36;83.53;98326.39;1727683;83;20974;-87
2021/10/16 03:10:23;;;;;;;10.28;5.28;;;;;;;7.38;84.04;98335.58;1727271;81;20972;-82
2021/10/16 03:12:49;;;;;;;8.05;4.70;;;;;;;7.30;84.46;98335.48;1727675;83;21396;-86
2021/10/16 03:15:23;;;;;;;8.88;4.60;;;;;;;7.23;84.81;98340.23;1727811;81;20925;-86
2021/10/16 03:17:50;;;;;;;7.72;4.90;;;;;;;7.20;84.75;98342.09;1724216;83;21068;-86
2021/10/16 03:20:15;;;;;;;6.45;4.22;;;;;;;7.17;85.28;98342.03;1725231;81;20964;-85
2021/10/16 03:22:44;;;;;;;8.45;4.22;;;;;;;7.19;87.30;98339.94;1727513;83;21421;-83
2021/10/16 03:25:17;;;;;;;6.55;4.12;;;;;;;7.21;86.59;98347.23;1727562;81;20956;-83
2021/10/16 03:27:42;;;;;;;8.85;3.50;;;;;;;7.23;87.07;98354.52;1727626;83;21409;-83
2021/10/16 03:30:19;;;;;;;6.03;3.52;;;;;;;7.26;86.15;98352.70;1723633;81;21437;-87
2021/10/16 03:32:44;;;;;;;6.55;4.00;;;;;;;7.24;86.00;98353.45;1710913;83;20964;-87
2021/10/16 03:35:14;;;;;;;11.40;7.00;;;;;;;7.24;86.75;98349.41;1726855;81;21042;-87
2021/10/16 03:37:42;;;;;;;13.10;7.08;;;;;;;7.25;86.43;98352.39;1727680;83;21417;-86
2021/10/16 03:40:18;;;;;;;24.23;16.25;;;;;;;7.27;86.32;98342.20;1725538;81;20929;-86
2021/10/16 03:42:43;;;;;;;183.68;108.40;;;;;;;7.29;86.99;98349.49;1709295;83;21079;-83
2021/10/16 03:45:12;;;;;;;44.33;28.80;;;;;;;7.34;87.00;98354.11;1727636;81;20913;-83
2021/10/16 03:47:47;;;;;;;16.90;10.82;;;;;;;7.40;86.18;98354.47;1727799;83;21562;-83
2021/10/16 03:50:12;;;;;;;19.37;12.50;;;;;;;7.46;85.87;98352.66;1718702;81;21003;-85
2021/10/16 03:52:43;;;;;;;7.12;4.62;;;;;;;7.50;85.62;98358.62;1695432;83;21337;-83
2021/10/16 03:55:13;;;;;;;21.02;11.83;;;;;;;7.51;85.49;98354.05;1661213;84;20995;-86
2021/10/16 03:57:49;;;;;;;25.27;14.85;;;;;;;7.55;85.56;98356.55;1723027;83;21491;-84
2021/10/16 04:00:18;;;;;;;25.62;14.78;;;;;;;7.58;85.63;98352.80;1668319;85;21004;-83
2021/10/16 04:02:58;;;;;;;23.25;13.58;;;;;;;7.61;85.57;98356.36;1636196;87;21920;-86
2021/10/16 04:05:29;;;;;;;;;;;;;;;;;;;;;
2021/10/16 04:07:57;;;;;;;16.00;10.98;;;;;;;7.51;85.28;98360.80;1611274;88;20927;-83
2021/10/16 04:10:23;;;;;;;11.12;5.50;;;;;;;7.49;85.29;98365.09;1613732;86;21122;-85
2021/10/16 04:12:49;;;;;;;10.45;6.22;;;;;;;7.51;85.50;98360.80;1661571;84;20908;-83
2021/10/16 04:15:19;;;;;;;14.13;9.05;;;;;;;7.54;85.65;98366.52;1688156;83;20948;-83
2021/10/16 04:17:52;;;;;;;10.08;6.28;;;;;;;7.55;85.68;98368.14;1675412;84;21417;-85
2021/10/16 04:20:26;;;;;;;7.40;5.03;;;;;;;7.50;85.69;98368.07;1692991;83;21040;-83
2021/10/16 04:22:50;;;;;;;11.33;4.60;;;;;;;7.50;85.64;98368.07;1691862;84;20919;-82
2021/10/16 04:25:15;;;;;;;13.88;7.87;;;;;;;7.59;85.65;98367.91;1692979;83;21058;-82
2021/10/16 04:27:51;;;;;;;;;;;;;;;;;;;;;
2021/10/16 04:30:11;;;;;;;9.50;5.62;;;;;;;7.60;85.70;98360.09;1690804;83;21455;-83
2021/10/16 04:32:37;;;;;;;11.80;5.17;;;;;;;7.61;85.55;98371.19;1693094;84;21083;-85
2021/10/16 04:35:04;;;;;;;10.18;6.83;;;;;;;7.52;85.75;98367.81;1692809;83;21022;-86
2021/10/16 04:37:30;;;;;;;6.30;4.20;;;;;;;7.42;85.81;98373.90;1692842;84;21070;-86
2021/10/16 04:39:56;;;;;;;6.00;4.42;;;;;;;7.33;85.90;98372.70;1687832;83;21353;-83
2021/10/16 04:42:22;;;;;;;7.70;4.20;;;;;;;7.10;85.94;98354.09;1686207;84;21027;-86
2021/10/16 04:44:48;;;;;;;7.47;3.70;;;;;;;7.14;86.14;98378.11;1685749;83;21367;-83
2021/10/16 04:47:15;;;;;;;5.83;3.45;;;;;;;7.06;86.42;98376.13;1685296;85;21574;-86
2021/10/16 04:49:41;;;;;;;7.65;5.33;;;;;;;7.02;86.82;98370.15;1685616;83;20864;-86
2021/10/16 04:52:07;;;;;;;7.30;4.83;;;;;;;6.98;87.12;98381.94;1685523;84;20921;-83
2021/10/16 04:54:35;;;;;;;8.95;5.17;;;;;;;6.97;87.11;98383.00;1684978;83;21023;-82
2021/10/16 04:57:03;;;;;;;10.93;7.78;;;;;;;6.91;87.21;98381.82;1684170;84;20987;-86
2021/10/16 04:59:29;;;;;;;13.53;9.20;;;;;;;6.88;87.37;98385.02;1685634;83;20904;-83
2021/10/16 05:02:02;;;;;;;12.70;10.15;;;;;;;6.84;88.82;98386.06;1685367;85;20979;-86
2021/10/16 05:04:23;;;;;;;15.13;9.53;;;;;;;6.89;87.97;98386.11;1684844;84;21031;-86
2021/10/16 05:06:49;;;;;;;11.60;7.45;;;;;;;7.01;87.82;98380.65;1685449;83;21034;-83
2021/10/16 05:09:19;;;;;;;9.53;6.10;;;;;;;7.10;87.90;98381.04;1685396;84;21279;-83
2021/10/16 05:11:47;;;;;;;8.97;6.60;;;;;;;7.11;87.80;98382.67;1685543;83;21318;-86
2021/10/16 05:14:13;;;;;;;11.65;6.35;;;;;;;7.04;87.45;98389.03;1685528;84;21424;-86
2021/10/16 05:16:39;;;;;;;10.18;7.28;;;;;;;7.06;87.58;98387.44;1685497;83;20995;-82
2021/10/16 05:19:05;;;;;;;10.63;8.50;;;;;;;7.01;87.58;98393.59;1685731;85;20884;-86
2021/10/16 05:21:33;;;;;;;11.18;8.08;;;;;;;7.03;87.51;98394.15;1685433;83;21150;-83
2021/10/16 05:24:09;;;;;;;;;;;;;;;;;;;;;
2021/10/16 05:26:29;;;;;;;10.20;8.00;;;;;;;7.15;88.00;98402.12;1683670;83;20909;-82
2021/10/16 05:29:06;;;;;;;11.48;7.53;;;;;;;7.20;88.90;98410.82;1685651;85;20992;-83
2021/10/16 05:31:24;;;;;;;13.32;7.90;;;;;;;7.30;88.10;98410.42;1684139;83;20972;-83
2021/10/16 05:33:55;;;;;;;11.57;7.72;;;;;;;7.38;87.87;98413.76;1665204;85;20968;-85
2021/10/16 05:36:22;;;;;;;12.60;8.03;;;;;;;7.42;87.67;98418.39;1685413;83;21086;-83
2021/10/16 05:38:50;;;;;;;12.00;8.58;;;;;;;7.49;87.58;98424.42;1685468;84;21511;-83
2021/10/16 05:41:16;;;;;;;28.77;15.18;;;;;;;7.55;87.48;98428.82;1685394;83;21014;-86
2021/10/16 05:43:44;;;;;;;29.90;15.93;;;;;;;7.58;87.14;98426.15;1685566;84;20944;-85
2021/10/16 05:46:12;;;;;;;26.93;15.38;;;;;;;7.56;86.84;98431.80;1685439;83;21928;-82
2021/10/16 05:48:54;;;;;;;;;;;;;;;;;;;;;
2021/10/16 05:51:11;;;;;;;12.98;7.90;;;;;;;7.50;86.48;98431.97;1671015;83;20937;-83
2021/10/16 05:53:54;;;;;;;;;;;;;;;;;;;;;
2021/10/16 05:56:15;;;;;;;19.30;12.23;;;;;;;7.64;86.58;98437.30;1682230;83;20924;-83
2021/10/16 05:58:39;;;;;;;18.70;10.82;;;;;;;7.70;86.45;98445.74;1684613;85;21384;-83
2021/10/16 06:01:05;;;;;;;15.30;8.33;;;;;;;7.74;86.39;98446.86;1685205;83;21031;-85
2021/10/16 06:03:32;;;;;;;16.23;7.90;;;;;;;7.70;86.36;98450.33;1685574;84;21000;-82
2021/10/16 06:06:02;;;;;;;13.40;8.30;;;;;;;7.65;86.31;98452.41;1684129;83;21015;-82
2021/10/16 06:08:28;;;;;;;8.60;6.45;;;;;;;7.69;86.62;98458.95;1685681;85;21060;-87
2021/10/16 06:11:02;;;;;;;12.60;6.78;;;;;;;7.72;86.74;98464.37;1685429;83;21706;-86
2021/10/16 06:13:24;;;;;;;14.47;7.15;;;;;;;7.69;86.54;98456.25;1684670;84;21511;-83
2021/10/16 06:15:52;;;;;;;13.53;7.62;;;;;;;7.66;86.45;98463.48;1681614;83;20912;-82
2021/10/16 06:18:24;;;;;;;12.35;8.55;;;;;;;7.65;86.26;98461.84;1685863;84;21014;-83
2021/10/16 06:20:48;;;;;;;11.68;6.95;;;;;;;7.71;86.32;98462.20;1685039;83;21523;-83
2021/10/16 06:23:16;;;;;;;15.13;9.20;;;;;;;7.78;85.94;98466.89;1685677;84;21147;-86
2021/10/16 06:25:42;;;;;;;18.62;12.73;;;;;;;7.87;85.78;98474.02;1685193;83;20984;-85
2021/10/16 06:28:14;;;;;;;19.27;9.65;;;;;;;7.92;85.77;98474.88;1685403;84;20984;-86
2021/10/16 06:30:42;;;;;;;13.48;7.50;;;;;;;8.00;85.65;98471.45;1651161;85;21432;-85
2021/10/16 06:33:10;;;;;;;12.00;9.35;;;;;;;7.92;85.41;98477.56;1683218;84;20904;-85
2021/10/16 06:35:41;;;;;;;13.22;8.28;;;;;;;7.95;85.61;98484.37;1682729;83;20945;-83
2021/10/16 06:38:16;;;;;;;32.98;17.62;;;;;;;8.03;85.59;98484.44;1685519;84;21000;-83
2021/10/16 06:40:45;;;;;;;24.70;13.70;;;;;;;8.05;85.46;98480.97;1689806;83;20978;-83
2021/10/16 06:43:13;;;;;;;20.72;12.65;;;;;;;8.14;85.60;98482.97;1689539;84;21017;-83
2021/10/16 06:45:48;;;;;;;17.07;10.50;;;;;;;8.33;85.60;98483.45;1689420;83;21429;-82
2021/10/16 06:48:10;;;;;;;13.35;9.33;;;;;;;8.56;85.23;98492.36;1690334;83;21292;-85
2021/10/16 06:50:38;;;;;;;17.05;8.75;;;;;;;8.67;83.57;98498.14;1697222;83;20907;-83
2021/10/16 06:53:08;;;;;;;12.05;7.95;;;;;;;8.67;83.92;98482.73;1688809;83;20963;-84
2021/10/16 06:55:45;;;;;;;;;;;;;;;;;;;;;
2021/10/16 06:58:03;;;;;;;8.35;5.53;;;;;;;8.76;83.54;98494.71;1686094;84;21032;-82
2021/10/16 07:00:29;;;;;;;11.78;6.35;;;;;;;8.84;83.52;98494.78;1687860;83;21683;-85
2021/10/16 07:02:55;;;;;;;7.80;5.95;;;;;;;8.97;81.83;98497.08;1687547;85;20920;-83
2021/10/16 07:05:24;;;;;;;13.32;7.28;;;;;;;9.48;80.63;98493.37;1687830;83;20976;-84
2021/10/16 07:08:20;;;;;;;;;;;;;;;;;;;;;
2021/10/16 07:10:41;;;;;;;;;;;;;;;;;;;;;
2021/10/16 07:13:19;;;;;;;;;;;;;;;;;;;;;
2021/10/16 08:05:16;;;;;;;;;;;;;;;;;;;;;
2021/10/16 08:07:36;;;;;;;9.33;4.53;;;;;;;10.99;70.37;98510.46;1559972;90;21171;-85
2021/10/16 08:10:16;;;;;;;;;;;;;;;;;;;;;
2021/10/16 08:15:21;;;;;;;;;;;;;;;;;;;;;
2021/10/16 08:18:01;;;;;;;;;;;;;;;;;;;;;
2021/10/16 08:20:30;;;;;;;;;;;;;;;;;;;;;
2021/10/16 08:23:04;;;;;;;;;;;;;;;;;;;;;
2021/10/16 08:25:42;;;;;;;;;;;;;;;;;;;;;
2021/10/16 08:28:30;;;;;;;;;;;;;;;;;;;;;
2021/10/16 08:30:53;;;;;;;;;;;;;;;;;;;;;
2021/10/16 08:37:06;;;;;;;;;;;;;;;;;;;;;
2021/10/16 16:52:27;;;;;;;;;;;;;;;;;;;;;
2021/10/16 16:55:14;;;;;;;;;;;;;;;;;;;;;
2021/10/16 17:05:02;;;;;;;;;;;;;;;;;;;;;
2021/10/16 17:07:29;;;;;;;70.42;40.58;;;;;;;8.31;78.43;98596.83;1696114;84;21091;-87
2021/10/16 17:10:16;;;;;;;;;;;;;;;;;;;;;
2021/10/16 17:12:57;;;;;;;;;;;;;;;;;;;;;
2021/10/16 17:15:28;;;;;;;;;;;;;;;;;;;;;
2021/10/16 17:18:03;;;;;;;;;;;;;;;;;;;;;
2021/10/16 17:20:35;;;;;;;;;;;;;;;;;;;;;
2021/10/16 17:23:27;;;;;;;;;;;;;;;;;;;;;
2021/10/16 17:36:08;;;;;;;;;;;;;;;;;;;;;
2021/10/16 17:38:29;;;;;;;;;;;;;;;;;;;;;
2021/10/16 17:41:01;;;;;;;;;;;;;;;;;;;;;
2021/10/16 17:43:36;;;;;;;;;;;;;;;;;;;;;
2021/10/16 17:46:25;;;;;;;;;;;;;;;;;;;;;
2021/10/16 17:48:43;;;;;;;;;;;;;;;;;;;;;
2021/10/16 17:51:15;;;;;;;;;;;;;;;;;;;;;
2021/10/16 17:53:49;;;;;;;;;;;;;;;;;;;;;
2021/10/16 17:56:20;;;;;;;;;;;;;;;;;;;;;
2021/10/16 17:58:59;;;;;;;;;;;;;;;;;;;;;
2021/10/16 18:01:27;;;;;;;;;;;;;;;;;;;;;
2021/10/16 18:03:50;;;;;;;106.60;57.83;;;;;;;7.97;80.82;98617.70;1334835;105;21089;-88
2021/10/16 18:06:44;;;;;;;;;;;;;;;;;;;;;
2021/10/16 18:09:07;;;;;;;174.47;93.67;;;;;;;7.93;82.43;98624.10;1326465;107;21190;-88
2021/10/16 18:11:56;;;;;;;;;;;;;;;;;;;;;
2021/10/16 18:16:52;;;;;;;;;;;;;;;;;;;;;
2021/10/16 18:19:28;;;;;;;;;;;;;;;;;;;;;
2021/10/16 18:22:05;;;;;;;;;;;;;;;;;;;;;
2021/10/16 18:24:44;;;;;;;;;;;;;;;;;;;;;
2021/10/16 18:27:13;;;;;;;;;;;;;;;;;;;;;
2021/10/16 18:29:46;;;;;;;;;;;;;;;;;;;;;
2021/10/16 18:34:51;;;;;;;;;;;;;;;;;;;;;
2021/10/16 18:37:20;;;;;;;;;;;;;;;;;;;;;
2021/10/16 18:39:45;;;;;;;112.50;57.60;;;;;;;7.59;83.71;98628.70;1526216;92;21121;-83
2021/10/16 18:42:14;;;;;;;132.60;64.87;;;;;;;7.52;84.97;98627.55;1496039;95;21189;-89
2021/10/16 18:44:58;;;;;;;;;;;;;;;;;;;;;
2021/10/16 18:47:29;;;;;;;;;;;;;;;;;;;;;
2021/10/16 18:50:02;;;;;;;;;;;;;;;;;;;;;
2021/10/16 18:52:32;;;;;;;;;;;;;;;;;;;;;
2021/10/16 18:54:55;;;;;;;129.12;67.58;;;;;;;7.50;84.33;98625.60;1381325;101;21271;-88
2021/10/16 18:57:28;;;;;;;130.55;67.65;;;;;;;7.52;84.91;98626.70;1335244;107;21128;-83
2021/10/16 19:00:06;;;;;;;;;;;;;;;;;;;;;
2021/10/16 19:02:29;;;;;;;123.35;67.55;;;;;;;7.47;85.58;98630.15;1334988;106;21439;-88
2021/10/16 19:04:55;;;;;;;;;;;;;;;7.43;84.08;98624.13;1339386;102;21108;-89
2021/10/16 19:07:25;;;;;;;93.58;53.90;;;;;;;7.38;85.00;98623.53;1365172;103;20463;-83
2021/10/16 19:10:06;;;;;;;;;;;;;;;;;;;;;
2021/10/16 19:12:44;;;;;;;;;;;;;;;;;;;;;
2021/10/16 19:15:22;;;;;;;;;;;;;;;;;;;;;
2021/10/16 19:17:54;;;;;;;;;;;;;;;;;;;;;
2021/10/16 19:20:28;;;;;;;;;;;;;;;;;;;;;
2021/10/16 19:22:57;;;;;;;82.95;48.35;;;;;;;7.28;84.39;98635.48;1397059;100;21114;-88
2021/10/16 19:25:35;;;;;;;;;;;;;;;;;;;;;
2021/10/16 19:33:03;;;;;;;;;;;;;;;;;;;;;
2021/10/16 19:35:24;;;;;;;74.12;41.00;;;;;;;6.99;85.53;98634.15;1611184;88;21082;-88
2021/10/16 19:38:04;;;;;;;69.75;39.13;;;;;;;6.95;87.16;98632.20;1629269;87;21022;-84
2021/10/16 19:40:38;;;;;;;;;;;;;;;;;;;;;
2021/10/16 19:43:16;;;;;;;67.25;39.75;;;;;;;6.85;85.31;98628.79;1513978;92;21094;-83
2021/10/16 19:45:44;;;;;;;;;;;;;;;;;;;;;
2021/10/16 19:48:06;;;;;;;74.97;45.38;;;;;;;6.68;85.74;98627.92;1521321;94;21658;-86
2021/10/16 19:50:41;;;;;;;68.75;41.20;;;;;;;6.65;86.75;98626.50;1514229;93;21048;-84
2021/10/16 19:53:07;;;;;;;81.90;43.90;;;;;;;6.62;87.49;98633.72;1526000;92;21041;-83
2021/10/16 19:55:43;;;;;;;72.27;40.25;;;;;;;6.56;85.92;98628.47;1477793;97;20998;-83
2021/10/16 19:58:08;;;;;;;76.30;43.50;;;;;;;6.46;85.23;98625.05;1555415;90;21213;-84
2021/10/16 20:00:45;;;;;;;;;;;;;;;;;;;;;
2021/10/16 20:03:04;;;;;;;81.53;43.55;;;;;;;6.36;84.94;98634.26;1557190;90;21176;-88
2021/10/16 20:05:42;;;;;;;;;;;;;;;;;;;;;
2021/10/16 20:08:12;;;;;;;;;;;;;;;;;;;;;
2021/10/16 20:10:44;;;;;;;;;;;;;;;;;;;;;
2021/10/16 20:13:18;;;;;;;;;;;;;;;;;;;;;
2021/10/16 20:15:48;;;;;;;;;;;;;;;;;;;;;
2021/10/16 20:18:22;;;;;;;;;;;;;;;;;;;;;
2021/10/16 20:20:55;;;;;;;;;;;;;;;;;;;;;
2021/10/16 21:15:05;;;;;;;;;;;;;;;;;;;;;
